»·PEaware :: SKW5225 KBOI-KLAX

SKW5225 :: KBOI-KLAX

FLIGHT INFORMATION

Flight Status: Arrived
Operator:
SkyWest Airlines
More flights by this operator :: More flights under this callsign
Pilot: John D. (29395)
Aircraft: CANADAIR CL-600 CRJ-200
(CRJ2)
More flights by this aircraft type
Origin: KBOI Boise Air Terminal/Gowen
United States
Destination: KLAX Los Angeles Intl
United States
More flights between these airports :: More routes between these airports
Route: +HYVAL REO J7 FMG FRA REBRG IRNMN2
File this flight plan on PilotEdge
Remarks:
Altitude:
(Current/Filed)
33,000ft
Speed:
(Current/Filed)
420kts
Departed: 11-May-20 04:05 PM
Arrived: 11-May-20 06:01 PM
Distance/Time
Traveled:
586nm/1:56
Distance/Time
To Go:
Arrived

Flight Plot

Page will automatically refresh every two minutes.


Map Options




Map Legend


Flown Route
Filed Route
Departure Airport
Arrival Airport
Navaid (VOR, NDB)
Fix

Horizontal Profiles

Position Reports

Time Latitude Longitude Heading Altitude Ground
Speed
11-May-20 15:25 43.567976 -116.220267 237 2876ft 0kts
11-May-20 15:26 43.567976 -116.220267 237 2876ft 0kts
11-May-20 15:27 43.567976 -116.220267 237 2876ft 0kts
11-May-20 15:28 43.567976 -116.220267 237 2876ft 0kts
11-May-20 15:29 43.567976 -116.220267 237 2876ft 0kts
11-May-20 15:30 43.567976 -116.220267 237 2876ft 0kts
11-May-20 15:31 43.567976 -116.220267 237 2876ft 0kts
11-May-20 15:32 43.567976 -116.220267 237 2876ft 0kts
11-May-20 15:33 43.567976 -116.220267 237 2876ft 0kts
11-May-20 15:34 43.567976 -116.220267 237 2876ft 0kts
11-May-20 15:35 43.567976 -116.220267 237 2876ft 0kts
11-May-20 15:36 43.567976 -116.220267 237 2876ft 0kts
11-May-20 15:37 43.567976 -116.220267 237 2876ft 0kts
11-May-20 15:38 43.567976 -116.220267 237 2876ft 0kts
11-May-20 15:39 43.567976 -116.220267 237 2876ft 0kts
11-May-20 15:40 43.567976 -116.220267 237 2876ft 0kts
11-May-20 15:41 43.567976 -116.220267 237 2876ft 0kts
11-May-20 15:42 43.567976 -116.220267 237 2876ft 0kts
11-May-20 15:43 43.567976 -116.220267 237 2876ft 0kts
11-May-20 15:44 43.567976 -116.220267 237 2876ft 0kts
11-May-20 15:45 43.567976 -116.220267 237 2876ft 0kts
11-May-20 15:46 43.567976 -116.220267 237 2876ft 0kts
11-May-20 15:47 43.567976 -116.220267 237 2876ft 0kts
11-May-20 15:48 43.567976 -116.220267 237 2876ft 0kts
11-May-20 15:49 43.567976 -116.220267 237 2876ft 0kts
11-May-20 15:50 43.567976 -116.220267 237 2876ft 0kts
11-May-20 15:51 43.567976 -116.220267 237 2876ft 0kts
11-May-20 15:52 43.568108 -116.219984 237 2876ft 2kts
11-May-20 15:53 43.568528 -116.219653 163 2876ft 0kts
11-May-20 15:54 43.568528 -116.219653 163 2876ft 0kts
11-May-20 15:55 43.568528 -116.219653 163 2876ft 0kts
11-May-20 15:56 43.568079 -116.218153 101 2876ft 13kts
11-May-20 15:57 43.566755 -116.217484 177 2876ft 2kts
11-May-20 15:58 43.564982 -116.218094 285 2876ft 8kts
11-May-20 15:59 43.566507 -116.222543 296 2876ft 15kts
11-May-20 16:00 43.568271 -116.227657 296 2876ft 13kts
11-May-20 16:01 43.569661 -116.231782 295 2876ft 9kts
11-May-20 16:02 43.570693 -116.234884 295 2876ft 9kts
11-May-20 16:03 43.569879 -116.235932 112 2876ft 8kts
11-May-20 16:04 43.558783 -116.203620 114 3081ft 172kts
11-May-20 16:05 43.539435 -116.137667 110 5040ft 221kts
11-May-20 16:06 43.516301 -116.054228 111 7929ft 260kts
11-May-20 16:07 43.487454 -115.950217 112 10959ft 308kts
11-May-20 16:08 43.454280 -115.830869 113 13378ft 373kts
11-May-20 16:09 43.416898 -115.696085 113 15970ft 384kts
11-May-20 16:10 43.378686 -115.558331 113 16734ft 395kts
11-May-20 16:11 43.339045 -115.414834 113 20104ft 411kts
11-May-20 16:12 43.297703 -115.265136 113 22761ft 430kts
11-May-20 16:13 43.216399 -115.158215 174 22800ft 421kts
11-May-20 16:14 43.120907 -115.225897 244 24272ft 415kts
11-May-20 16:15 43.078297 -115.370776 244 27972ft 406kts
11-May-20 16:16 43.027423 -115.512195 245 30464ft 420kts
11-May-20 16:17 42.975017 -115.657752 244 32463ft 434kts
11-May-20 16:18 42.921730 -115.805127 244 32747ft 429kts
11-May-20 16:19 42.841039 -115.917005 215 32748ft 430kts
11-May-20 16:20 42.750685 -116.023244 223 32757ft 431kts
11-May-20 16:21 42.660376 -116.131945 223 32763ft 435kts
11-May-20 16:22 42.570199 -116.240170 223 32772ft 436kts
11-May-20 16:23 42.478940 -116.349257 223 32769ft 437kts
11-May-20 16:24 42.387853 -116.457765 223 32765ft 436kts
11-May-20 16:25 42.296522 -116.566076 222 32771ft 436kts
11-May-20 16:26 42.205364 -116.673744 222 32776ft 436kts
11-May-20 16:27 42.113728 -116.781549 222 32798ft 436kts
11-May-20 16:28 42.022501 -116.888446 222 32799ft 436kts
11-May-20 16:29 41.931142 -116.995088 222 32803ft 433kts
11-May-20 16:30 41.840499 -117.100490 222 32827ft 431kts
11-May-20 16:31 41.749677 -117.205661 221 32839ft 431kts
11-May-20 16:32 41.659097 -117.310151 221 32837ft 430kts
11-May-20 16:33 41.568386 -117.414398 221 32851ft 430kts
11-May-20 16:34 41.477606 -117.518320 221 32850ft 429kts
11-May-20 16:35 41.386901 -117.621763 221 32848ft 429kts
11-May-20 16:36 41.296411 -117.724564 221 32854ft 429kts
11-May-20 16:37 41.205707 -117.827218 221 32852ft 429kts
11-May-20 16:38 41.114885 -117.929630 221 32851ft 429kts
11-May-20 16:39 41.024157 -118.031560 221 32850ft 428kts
11-May-20 16:40 40.933629 -118.132851 221 32847ft 426kts
11-May-20 16:41 40.843874 -118.232935 221 32854ft 425kts
11-May-20 16:42 40.753161 -118.333725 221 32853ft 425kts
11-May-20 16:43 40.662757 -118.433776 221 32855ft 425kts
11-May-20 16:44 40.572320 -118.533513 221 32858ft 424kts
11-May-20 16:45 40.481940 -118.632806 221 32857ft 424kts
11-May-20 16:46 40.392174 -118.731086 221 32864ft 424kts
11-May-20 16:47 40.301564 -118.829919 221 32862ft 424kts
11-May-20 16:48 40.210646 -118.928743 221 32861ft 424kts
11-May-20 16:49 40.119732 -119.027183 221 32859ft 423kts
11-May-20 16:50 40.029036 -119.125061 221 32884ft 422kts
11-May-20 16:51 39.938449 -119.222461 222 32934ft 421kts
11-May-20 16:52 39.847641 -119.319769 222 32959ft 421kts
11-May-20 16:53 39.756692 -119.416871 222 32959ft 421kts
11-May-20 16:54 39.665708 -119.513673 222 32950ft 421kts
11-May-20 16:55 39.574389 -119.610488 222 32951ft 421kts
11-May-20 16:56 39.465463 -119.653291 185 32950ft 443kts
11-May-20 16:57 39.341562 -119.651180 184 32947ft 447kts
11-May-20 16:58 39.216784 -119.647995 184 32946ft 448kts
11-May-20 16:59 39.091287 -119.644784 184 32946ft 449kts
11-May-20 17:00 38.965395 -119.641572 184 32955ft 449kts
11-May-20 17:01 38.839867 -119.638386 184 32977ft 450kts
11-May-20 17:02 38.714850 -119.635229 184 32977ft 451kts
11-May-20 17:03 38.590506 -119.632089 184 32976ft 452kts
11-May-20 17:04 38.464612 -119.628924 184 32976ft 452kts
11-May-20 17:06 38.338781 -119.625783 184 32985ft 453kts
11-May-20 17:07 38.212773 -119.622626 184 33011ft 452kts
11-May-20 17:08 38.085925 -119.619472 184 33010ft 453kts
11-May-20 17:09 37.959591 -119.616351 184 33010ft 453kts
11-May-20 17:10 37.833633 -119.613237 184 33018ft 454kts
11-May-20 17:11 37.706945 -119.610120 184 33023ft 455kts
11-May-20 17:12 37.580328 -119.607015 184 33022ft 455kts
11-May-20 17:13 37.453696 -119.603922 183 33021ft 455kts
11-May-20 17:14 37.326622 -119.600788 184 33025ft 455kts
11-May-20 17:15 37.201451 -119.597776 185 32999ft 446kts
11-May-20 17:16 37.077117 -119.596023 187 32965ft 442kts
11-May-20 17:17 36.953977 -119.598061 187 32965ft 441kts
11-May-20 17:18 36.830974 -119.600190 187 32970ft 442kts
11-May-20 17:19 36.708211 -119.602306 187 32969ft 443kts
11-May-20 17:20 36.584607 -119.604439 187 32970ft 444kts
11-May-20 17:21 36.460972 -119.606553 187 32977ft 445kts
11-May-20 17:22 36.337589 -119.608665 187 32974ft 445kts
11-May-20 17:23 36.216226 -119.610705 187 32966ft 446kts
11-May-20 17:24 36.091789 -119.612817 187 32966ft 446kts
11-May-20 17:25 35.968452 -119.620571 201 32967ft 432kts
11-May-20 17:26 35.854272 -119.662537 202 32968ft 433kts
11-May-20 17:26 35.757592 -119.698763 202 32968ft 434kts
11-May-20 17:28 35.620669 -119.743750 197 32967ft 439kts
11-May-20 17:28 35.520150 -119.768315 197 32967ft 439kts
11-May-20 17:29 35.399685 -119.797483 196 32980ft 439kts
11-May-20 17:30 35.276269 -119.804726 165 32598ft 461kts
11-May-20 17:31 35.170652 -119.713712 148 31519ft 459kts
11-May-20 17:32 35.069182 -119.619169 148 30321ft 453kts
11-May-20 17:33 34.968644 -119.525814 147 29124ft 448kts
11-May-20 17:34 34.869605 -119.435443 148 27942ft 438kts
11-May-20 17:35 34.771521 -119.347695 148 25985ft 429kts
11-May-20 17:36 34.677297 -119.264946 148 23903ft 404kts
11-May-20 17:37 34.587086 -119.186823 149 22273ft 390kts
11-May-20 17:38 34.499657 -119.109931 148 20657ft 383kts
11-May-20 17:39 34.413389 -119.034189 148 18540ft 376kts
11-May-20 17:40 34.330264 -118.961505 148 17003ft 357kts
11-May-20 17:41 34.251279 -118.889899 147 15402ft 349kts
11-May-20 17:42 34.185579 -118.829560 147 13617ft 303kts
11-May-20 17:43 34.135802 -118.778769 142 11954ft 295kts
11-May-20 17:44 34.090354 -118.729576 142 10674ft 292kts
11-May-20 17:45 34.037710 -118.670027 124 9140ft 291kts
11-May-20 17:46 34.020586 -118.564310 97 8988ft 270kts
11-May-20 17:47 34.012168 -118.477837 96 7947ft 255kts
11-May-20 17:48 34.019096 -118.407288 77 6779ft 244kts
11-May-20 17:49 34.028787 -118.341452 81 6009ft 245kts
11-May-20 17:50 34.035480 -118.281957 82 5314ft 242kts
11-May-20 17:51 34.042758 -118.218688 81 4394ft 237kts
11-May-20 17:52 34.050406 -118.155531 81 3605ft 232kts
11-May-20 17:53 34.024980 -118.108433 172 3615ft 221kts
11-May-20 17:54 33.979231 -118.110347 226 3607ft 211kts
11-May-20 17:55 33.959725 -118.158642 264 3611ft 213kts
11-May-20 17:56 33.954150 -118.218092 262 2907ft 180kts
11-May-20 17:57 33.948929 -118.269237 262 2029ft 155kts
11-May-20 17:58 33.944535 -118.312779 263 1319ft 142kts
11-May-20 17:59 33.939446 -118.362418 262 504ft 138kts
11-May-20 18:00 33.935537 -118.400793 262 130ft 23kts
11-May-20 18:01 33.935897 -118.406444 282 130ft 0kts
11-May-20 18:02 33.935897 -118.406444 282 130ft 0kts
11-May-20 18:03 33.935932 -118.406854 270 130ft 7kts
11-May-20 18:04 33.937880 -118.409171 352 130ft 0kts
11-May-20 18:05 33.937880 -118.409171 352 130ft 0kts
11-May-20 18:06 33.938612 -118.408978 54 130ft 11kts
11-May-20 18:07 33.939074 -118.405163 83 130ft 15kts
11-May-20 18:08 33.940091 -118.403120 352 130ft 4kts
11-May-20 18:09 33.940806 -118.403181 11 130ft 0kts
11-May-20 18:10 33.940874 -118.402632 96 130ft 0kts
11-May-20 18:11 33.940874 -118.402632 96 130ft 0kts

Navigation Log

Ident Type
Flight plan parsing failed, navigation log unavailable